Time;durP1;ratioP1;P1;durP2;ratioP2;P2;SDS_P1;SDS_P2;PMS_P1;PMS_P2;Temp;Humidity;BMP_temperature;BMP_pressure;BME280_temperature;BME280_humidity;BME280_pressure;Samples;Min_cycle;Max_cycle;Signal;HPM_P1;HPM_P2
2023/02/02 00:00:40;;;;;;;1.60;1.15;;;28.90;62.60;;;;;;4156658;28;20426;-44
2023/02/02 00:03:03;;;;;;;3.35;1.60;;;28.90;62.80;;;;;;4154443;28;20045;-44
2023/02/02 00:05:25;;;;;;;3.85;1.77;;;28.90;60.50;;;;;;4156587;28;20061;-42
2023/02/02 00:07:47;;;;;;;2.42;1.52;;;28.70;58.20;;;;;;4148217;28;20468;-42
2023/02/02 00:10:10;;;;;;;1.75;1.48;;;28.50;57.60;;;;;;4153488;28;20417;-45
2023/02/02 00:12:33;;;;;;;4.05;1.67;;;28.20;57.00;;;;;;4152844;28;20560;-42
2023/02/02 00:14:55;;;;;;;3.42;1.80;;;28.00;56.80;;;;;;4154132;28;20122;-43
2023/02/02 00:17:17;;;;;;;2.58;1.92;;;27.80;56.70;;;;;;4151309;28;20034;-49
2023/02/02 00:19:40;;;;;;;2.55;1.90;;;27.50;56.80;;;;;;4155924;28;20041;-45
2023/02/02 00:22:02;;;;;;;3.78;2.10;;;27.40;56.30;;;;;;4152968;28;20505;-44
2023/02/02 00:24:25;;;;;;;2.65;2.00;;;27.30;56.10;;;;;;4155892;28;20107;-43
2023/02/02 00:26:50;;;;;;;3.38;2.20;;;27.10;56.00;;;;;;4151703;28;20122;-43
2023/02/02 00:29:19;;;;;;;2.75;2.20;;;27.00;57.30;;;;;;4155054;28;20072;-42
2023/02/02 00:31:41;;;;;;;4.35;2.42;;;26.80;56.30;;;;;;4161196;28;20045;-42
2023/02/02 00:34:03;;;;;;;3.40;2.75;;;26.70;57.10;;;;;;4154867;28;20068;-43
2023/02/02 00:36:26;;;;;;;3.58;2.80;;;26.60;57.10;;;;;;4151623;28;20493;-43
2023/02/02 00:38:50;;;;;;;3.38;2.97;;;26.50;57.30;;;;;;4150539;28;20048;-42
2023/02/02 00:41:11;;;;;;;;;;;26.40;56.30;;;;;;4154452;28;20052;-42
2023/02/02 00:43:34;;;;;;;4.10;3.45;;;26.30;57.10;;;;;;4151950;28;19932;-44
2023/02/02 00:45:57;;;;;;;4.40;3.90;;;26.20;56.80;;;;;;4151870;28;20417;-42
2023/02/02 00:48:19;;;;;;;4.60;3.70;;;26.10;56.20;;;;;;4153923;28;20203;-42
2023/02/02 00:50:41;;;;;;;7.28;4.63;;;26.00;56.50;;;;;;4154261;28;20064;-45
2023/02/02 00:53:04;;;;;;;4.30;3.90;;;25.90;56.90;;;;;;4153100;28;20033;-42
2023/02/02 00:55:26;;;;;;;4.65;4.15;;;25.80;56.70;;;;;;4153835;28;20052;-42
2023/02/02 00:57:49;;;;;;;4.57;4.15;;;25.70;57.60;;;;;;4148863;28;20095;-44
2023/02/02 01:00:17;;;;;;;4.78;4.38;;;25.70;56.70;;;;;;4153973;28;20464;-42
2023/02/02 01:02:40;;;;;;;5.63;4.15;;;25.60;56.60;;;;;;4151057;28;20416;-42
2023/02/02 01:05:02;;;;;;;4.68;4.20;;;25.50;56.70;;;;;;4153453;28;20045;-45
2023/02/02 01:07:25;;;;;;;4.75;4.30;;;25.40;56.30;;;;;;4150042;28;20045;-43
2023/02/02 01:09:47;;;;;;;6.43;4.20;;;25.30;56.50;;;;;;4154030;28;20045;-44
2023/02/02 01:12:10;;;;;;;4.65;4.25;;;25.20;56.50;;;;;;4154839;28;20409;-46
2023/02/02 01:14:32;;;;;;;4.97;4.00;;;25.20;56.60;;;;;;4154041;28;20037;-44
2023/02/02 01:16:54;;;;;;;4.40;4.00;;;25.10;56.90;;;;;;4155646;28;20046;-48
2023/02/02 01:19:17;;;;;;;4.13;3.72;;;25.10;56.90;;;;;;4148432;28;20068;-43
2023/02/02 01:21:40;;;;;;;4.43;4.03;;;25.00;57.10;;;;;;4152516;28;20048;-47
2023/02/02 01:24:02;;;;;;;4.18;3.78;;;24.90;57.00;;;;;;4152588;28;20403;-44
2023/02/02 01:26:24;;;;;;;4.60;4.00;;;24.80;56.70;;;;;;4152944;28;20585;-47
2023/02/02 01:28:47;;;;;;;7.55;3.97;;;24.80;57.10;;;;;;4153135;28;20029;-46
2023/02/02 01:31:16;;;;;;;4.07;3.67;;;24.70;56.90;;;;;;4152876;28;20573;-44
2023/02/02 01:33:39;;;;;;;6.53;3.70;;;24.70;57.10;;;;;;4149788;28;20041;-48
2023/02/02 01:36:06;;;;;;;3.93;3.53;;;24.60;57.00;;;;;;4153263;28;20049;-52
2023/02/02 01:38:28;;;;;;;5.47;4.13;;;24.60;57.20;;;;;;4152436;28;20037;-60
2023/02/02 01:40:55;;;;;;;4.53;3.67;;;24.50;57.50;;;;;;4153011;28;20067;-49
2023/02/02 01:43:26;;;;;;;3.65;3.25;;;24.40;57.40;;;;;;4151590;28;20042;-44
2023/02/02 01:45:50;;;;;;;4.63;3.95;;;24.40;57.80;;;;;;4148305;28;20136;-46
2023/02/02 01:48:12;;;;;;;;;;;24.30;57.90;;;;;;4151312;28;20045;-48
2023/02/02 01:50:35;;;;;;;4.10;3.70;;;24.30;58.00;;;;;;4152800;28;19984;-47
2023/02/02 01:53:01;;;;;;;3.70;3.30;;;24.20;57.80;;;;;;4149103;28;20041;-43
2023/02/02 01:55:27;;;;;;;4.63;4.13;;;24.20;57.80;;;;;;4152946;28;20033;-44
2023/02/02 01:57:58;;;;;;;5.40;3.45;;;24.10;57.90;;;;;;4151255;28;20052;-46
2023/02/02 02:00:26;;;;;;;4.63;3.42;;;24.00;57.90;;;;;;4153154;28;20080;-48
2023/02/02 02:02:49;;;;;;;6.03;4.30;;;24.00;58.30;;;;;;4153144;28;20535;-49
2023/02/02 02:05:13;;;;;;;4.38;3.63;;;24.00;58.20;;;;;;4151607;28;20226;-45
2023/02/02 02:07:36;;;;;;;4.28;3.80;;;23.90;57.90;;;;;;4152752;28;20033;-50
2023/02/02 02:09:59;;;;;;;4.07;3.58;;;23.80;57.90;;;;;;4151866;28;20049;-52
2023/02/02 02:12:21;;;;;;;4.22;3.55;;;23.80;58.20;;;;;;4153838;28;20123;-46
2023/02/02 02:17:55;;;;;;;4.03;3.50;;;23.70;58.90;;;;;;4153962;28;20080;-47
2023/02/02 02:28:00;;;;;;;5.20;4.38;;;23.50;58.40;;;;;;4144410;28;20052;-46
2023/02/02 02:30:59;;;;;;;5.45;4.40;;;23.50;58.50;;;;;;4136951;28;20044;-52
2023/02/02 02:33:44;;;;;;;6.97;5.05;;;23.50;58.70;;;;;;4154355;28;20061;-49
2023/02/02 02:36:32;;;;;;;5.45;4.70;;;23.40;58.90;;;;;;4155069;28;20099;-52
2023/02/02 02:39:17;;;;;;;5.57;4.72;;;23.30;58.80;;;;;;4152202;28;20136;-46
2023/02/02 02:41:46;;;;;;;5.68;4.10;;;23.30;59.30;;;;;;4153105;28;20400;-42
2023/02/02 02:44:13;;;;;;;4.95;4.03;;;23.30;59.30;;;;;;4157680;28;20033;-45
2023/02/02 02:46:37;;;;;;;6.57;4.20;;;23.30;59.40;;;;;;4153783;28;20096;-46
2023/02/02 02:49:00;;;;;;;;;;;23.20;59.30;;;;;;4157580;28;20405;-46
2023/02/02 02:51:45;;;;;;;4.57;3.85;;;23.20;59.50;;;;;;4154850;28;20006;-52
2023/02/02 02:54:08;;;;;;;4.30;3.58;;;23.20;59.50;;;;;;4155334;28;20148;-46
2023/02/02 02:56:39;;;;;;;3.70;3.28;;;23.10;59.60;;;;;;4153847;28;20033;-43
2023/02/02 02:59:13;;;;;;;4.10;3.20;;;23.10;59.60;;;;;;4151617;28;20381;-51
2023/02/02 03:02:01;;;;;;;4.15;3.20;;;23.10;59.80;;;;;;4155113;28;20040;-44
2023/02/02 03:04:37;;;;;;;3.90;3.00;;;23.10;59.80;;;;;;4153167;28;20030;-45
2023/02/02 03:07:12;;;;;;;4.05;3.30;;;23.10;59.90;;;;;;4151709;28;20041;-45
2023/02/02 03:09:40;;;;;;;4.03;3.35;;;23.00;60.10;;;;;;4156636;28;20052;-44
2023/02/02 03:12:02;;;;;;;4.55;3.55;;;23.00;60.00;;;;;;4150983;28;20048;-44
2023/02/02 03:14:25;;;;;;;3.88;3.20;;;23.00;60.10;;;;;;4157831;28;20037;-49
2023/02/02 03:16:51;;;;;;;3.80;3.30;;;23.00;60.00;;;;;;4149794;28;20104;-44
2023/02/02 03:19:13;;;;;;;4.72;2.90;;;23.00;60.20;;;;;;4149831;28;20402;-43
2023/02/02 03:21:36;;;;;;;4.22;3.13;;;22.90;60.10;;;;;;4154319;28;20064;-42
2023/02/02 03:23:59;;;;;;;4.00;2.85;;;22.90;60.20;;;;;;4155323;28;20056;-42
2023/02/02 03:26:21;;;;;;;5.97;3.13;;;22.90;60.30;;;;;;4164426;28;20049;-43
2023/02/02 03:28:44;;;;;;;3.90;3.00;;;22.90;60.20;;;;;;4150330;28;20037;-42
2023/02/02 03:31:06;;;;;;;3.67;2.85;;;22.90;60.30;;;;;;4157646;28;20041;-43
2023/02/02 03:33:32;;;;;;;3.80;2.90;;;22.90;60.40;;;;;;4154925;28;20029;-47
2023/02/02 03:35:54;;;;;;;3.67;2.78;;;22.90;60.60;;;;;;4155186;28;20133;-47
2023/02/02 03:38:17;;;;;;;5.50;3.10;;;22.90;60.60;;;;;;4154020;28;20567;-46
2023/02/02 03:40:40;;;;;;;3.55;2.80;;;22.90;60.70;;;;;;4153773;28;20355;-46
2023/02/02 03:43:02;;;;;;;4.13;3.00;;;22.90;60.70;;;;;;4146770;28;20041;-44
2023/02/02 03:45:28;;;;;;;3.78;2.97;;;22.90;60.80;;;;;;4151406;28;20115;-46
2023/02/02 03:47:50;;;;;;;6.18;3.10;;;22.90;60.80;;;;;;4148253;28;20447;-46
2023/02/02 03:50:13;;;;;;;5.22;2.92;;;22.90;61.00;;;;;;4152509;28;20041;-43
2023/02/02 03:52:35;;;;;;;3.72;2.80;;;22.80;60.90;;;;;;4150526;28;20446;-53
2023/02/02 03:54:58;;;;;;;5.80;3.10;;;22.80;60.90;;;;;;4153271;28;20037;-45
2023/02/02 03:57:20;;;;;;;3.60;2.63;;;22.80;60.70;;;;;;4149730;28;20042;-44
2023/02/02 03:59:42;;;;;;;4.95;3.10;;;22.80;60.90;;;;;;4152874;28;20040;-48
2023/02/02 04:02:06;;;;;;;3.92;2.92;;;22.80;60.90;;;;;;4149892;28;20532;-42
2023/02/02 04:04:28;;;;;;;3.58;2.70;;;22.80;60.90;;;;;;4152045;28;20500;-49
2023/02/02 04:06:51;;;;;;;5.20;2.70;;;22.80;60.90;;;;;;4152205;28;20049;-44
2023/02/02 04:09:13;;;;;;;10.18;3.05;;;22.80;60.90;;;;;;4152432;28;20057;-46
2023/02/02 04:11:36;;;;;;;5.25;3.00;;;22.80;60.90;;;;;;4149091;28;20037;-45
2023/02/02 04:13:58;;;;;;;6.82;3.00;;;22.80;61.20;;;;;;4152872;28;20456;-46
2023/02/02 04:16:20;;;;;;;3.95;3.10;;;22.80;61.00;;;;;;4153542;28;20049;-51
2023/02/02 04:18:43;;;;;;;4.00;3.13;;;22.80;61.10;;;;;;4148084;28;20533;-47
2023/02/02 04:21:07;;;;;;;3.55;2.88;;;22.80;61.40;;;;;;4151669;28;20037;-51
2023/02/02 04:23:30;;;;;;;3.42;2.55;;;22.80;61.30;;;;;;4155123;28;20485;-48
2023/02/02 04:25:53;;;;;;;3.87;2.87;;;22.80;61.20;;;;;;4152464;28;20045;-41
2023/02/02 04:28:15;;;;;;;3.97;2.83;;;22.80;61.20;;;;;;4156205;28;20053;-48
2023/02/02 04:30:37;;;;;;;3.88;2.78;;;22.80;61.20;;;;;;4155854;28;20045;-49
2023/02/02 04:33:00;;;;;;;5.43;2.90;;;22.80;61.20;;;;;;4150611;28;20045;-47
2023/02/02 04:35:22;;;;;;;3.70;2.80;;;22.80;61.20;;;;;;4155809;28;20124;-45
2023/02/02 04:37:45;;;;;;;3.50;2.72;;;22.80;61.20;;;;;;4154807;28;20048;-41
2023/02/02 04:40:08;;;;;;;4.10;2.97;;;22.80;61.40;;;;;;4155908;28;20037;-43
2023/02/02 04:42:31;;;;;;;3.15;2.50;;;22.80;61.30;;;;;;4153679;28;20037;-42
2023/02/02 04:44:54;;;;;;;4.78;2.63;;;22.80;61.30;;;;;;4153626;28;20079;-42
2023/02/02 04:47:16;;;;;;;4.32;2.88;;;22.80;61.20;;;;;;4154008;28;20037;-44
2023/02/02 04:49:38;;;;;;;4.07;2.67;;;22.80;61.10;;;;;;4154609;28;20115;-47
2023/02/02 04:52:01;;;;;;;3.78;2.58;;;22.80;61.00;;;;;;4149836;28;20048;-44
2023/02/02 04:54:23;;;;;;;3.85;2.90;;;22.80;61.10;;;;;;4154802;28;20180;-45
2023/02/02 04:56:46;;;;;;;4.38;2.38;;;22.80;61.20;;;;;;4151941;28;20477;-42
2023/02/02 04:59:08;;;;;;;3.45;2.60;;;22.80;61.20;;;;;;4155365;28;20034;-42
2023/02/02 05:01:32;;;;;;;4.18;2.58;;;22.80;61.20;;;;;;4150495;28;20152;-39
2023/02/02 05:03:54;;;;;;;3.78;2.70;;;22.80;61.20;;;;;;4149363;28;20046;-43
2023/02/02 05:06:18;;;;;;;3.83;2.42;;;22.80;61.20;;;;;;4152753;28;20579;-46
2023/02/02 05:08:42;;;;;;;3.30;2.30;;;22.80;61.30;;;;;;4152229;28;20042;-42
2023/02/02 05:11:08;;;;;;;5.63;2.95;;;22.80;61.40;;;;;;4154281;28;20041;-42
2023/02/02 05:13:31;;;;;;;4.38;3.22;;;22.80;61.40;;;;;;4150832;28;20730;-42
2023/02/02 05:15:54;;;;;;;3.80;2.67;;;22.80;61.30;;;;;;4148025;28;20060;-41
2023/02/02 05:18:16;;;;;;;3.63;2.50;;;22.80;61.10;;;;;;4151603;28;20045;-46
2023/02/02 05:20:39;;;;;;;4.75;2.72;;;22.80;61.10;;;;;;4150873;28;20064;-43
2023/02/02 05:23:01;;;;;;;2.95;2.10;;;22.80;61.00;;;;;;4152520;28;20051;-43
2023/02/02 05:25:23;;;;;;;3.53;2.40;;;22.80;61.10;;;;;;4156644;28;20049;-42
2023/02/02 05:27:46;;;;;;;3.67;2.70;;;22.90;61.10;;;;;;4152638;28;20575;-44
2023/02/02 05:30:11;;;;;;;3.63;2.50;;;22.90;61.10;;;;;;4152638;28;20211;-41
2023/02/02 05:32:34;;;;;;;4.05;2.20;;;22.90;61.20;;;;;;4150726;28;20040;-44
2023/02/02 05:34:56;;;;;;;3.20;2.40;;;22.90;61.10;;;;;;4152158;28;20723;-42
2023/02/02 05:37:19;;;;;;;3.78;2.20;;;22.90;61.20;;;;;;4153177;28;20128;-45
2023/02/02 05:39:41;;;;;;;3.35;2.33;;;22.90;61.20;;;;;;4154426;28;20460;-39
2023/02/02 05:42:03;;;;;;;6.97;2.42;;;22.90;61.20;;;;;;4150426;28;20041;-45
2023/02/02 05:44:26;;;;;;;3.72;2.40;;;23.00;61.00;;;;;;4153875;28;20132;-42
2023/02/02 05:46:48;;;;;;;3.40;2.17;;;23.00;61.00;;;;;;4154059;28;20049;-40
2023/02/02 05:49:13;;;;;;;3.97;2.40;;;23.00;61.30;;;;;;4153686;28;20144;-41
2023/02/02 05:51:46;;;;;;;4.65;2.85;;;23.00;61.60;;;;;;4151999;28;20485;-44
2023/02/02 05:54:09;;;;;;;4.20;2.30;;;23.00;61.30;;;;;;4150174;28;20516;-42
2023/02/02 05:56:31;;;;;;;3.50;2.13;;;23.00;61.30;;;;;;4146287;28;20033;-41
2023/02/02 05:58:54;;;;;;;5.20;2.47;;;23.00;61.60;;;;;;4148831;28;20592;-45
2023/02/02 06:01:17;;;;;;;3.75;2.30;;;23.00;61.60;;;;;;4151536;28;20044;-42
2023/02/02 06:03:40;;;;;;;6.05;3.13;;;22.90;61.60;;;;;;4150973;28;20040;-44
2023/02/02 06:06:02;;;;;;;6.07;2.55;;;23.00;61.60;;;;;;4150887;28;20045;-42
2023/02/02 06:08:25;;;;;;;3.03;2.30;;;23.00;61.50;;;;;;4147928;28;20034;-39
2023/02/02 06:10:48;;;;;;;3.72;2.50;;;23.00;61.20;;;;;;4149579;28;20056;-41
2023/02/02 06:13:10;;;;;;;3.20;2.50;;;23.00;61.30;;;;;;4147472;28;20084;-38
2023/02/02 06:15:33;;;;;;;3.00;2.40;;;23.00;61.10;;;;;;4148785;28;20044;-42
2023/02/02 06:17:57;;;;;;;4.38;2.83;;;22.90;61.00;;;;;;4150193;28;20095;-40
2023/02/02 06:20:19;;;;;;;3.33;2.45;;;22.90;61.20;;;;;;4149078;28;20526;-42
2023/02/02 06:22:42;;;;;;;3.83;2.50;;;22.90;61.10;;;;;;4147829;28;20037;-43
2023/02/02 06:25:06;;;;;;;3.40;2.80;;;22.90;61.10;;;;;;4150419;28;20123;-46
2023/02/02 06:27:28;;;;;;;;;;;22.90;61.00;;;;;;4147514;28;20033;-42
2023/02/02 06:29:50;;;;;;;3.33;2.33;;;23.00;61.00;;;;;;4149552;28;19959;-42
2023/02/02 06:32:13;;;;;;;5.07;2.60;;;23.10;60.80;;;;;;4148294;28;20107;-44
2023/02/02 06:34:35;;;;;;;4.93;2.80;;;23.10;60.90;;;;;;4149069;28;20469;-42
2023/02/02 06:36:58;;;;;;;4.50;2.55;;;23.10;60.70;;;;;;4149375;28;20045;-45
2023/02/02 06:39:20;;;;;;;3.72;2.60;;;23.20;60.70;;;;;;4148415;28;20121;-45
2023/02/02 06:41:45;;;;;;;3.30;2.20;;;23.20;60.50;;;;;;4149284;28;20125;-43
2023/02/02 06:44:07;;;;;;;3.90;2.53;;;23.30;60.30;;;;;;4148565;28;20041;-43
2023/02/02 06:46:30;;;;;;;4.05;2.60;;;23.30;60.30;;;;;;4144026;28;20513;-42
2023/02/02 06:48:52;;;;;;;3.28;2.42;;;23.40;60.40;;;;;;4150314;28;20503;-44
2023/02/02 06:51:15;;;;;;;3.35;2.22;;;23.40;60.40;;;;;;4147023;28;20124;-44
2023/02/02 06:53:37;;;;;;;4.35;2.40;;;23.40;60.40;;;;;;4147917;28;20065;-41
2023/02/02 06:56:02;;;;;;;3.15;2.15;;;23.50;60.30;;;;;;4147624;28;20537;-44
2023/02/02 06:58:24;;;;;;;3.58;2.20;;;23.50;60.10;;;;;;4147866;28;20464;-46
2023/02/02 07:00:47;;;;;;;3.70;2.60;;;23.50;60.00;;;;;;4149174;28;20091;-43
2023/02/02 07:03:09;;;;;;;2.70;2.25;;;23.60;59.90;;;;;;4145674;28;20050;-45
2023/02/02 07:05:32;;;;;;;3.30;2.33;;;23.60;59.60;;;;;;4144388;28;20081;-42
2023/02/02 07:07:54;;;;;;;3.58;2.28;;;23.60;59.40;;;;;;4149916;28;20041;-41
2023/02/02 07:10:17;;;;;;;2.70;2.10;;;23.60;59.40;;;;;;4148470;28;20037;-44
2023/02/02 07:12:40;;;;;;;3.08;2.22;;;23.60;59.50;;;;;;4150230;28;20064;-46
2023/02/02 07:15:02;;;;;;;3.20;2.28;;;23.60;59.50;;;;;;4151038;28;20052;-44
2023/02/02 07:17:25;;;;;;;4.00;2.65;;;23.60;59.30;;;;;;4149118;28;20045;-46
2023/02/02 07:19:47;;;;;;;3.10;2.20;;;23.60;59.40;;;;;;4151194;28;20287;-45
2023/02/02 07:22:10;;;;;;;3.22;2.22;;;23.60;59.40;;;;;;4149990;28;20076;-43
2023/02/02 07:24:32;;;;;;;3.80;2.22;;;23.50;59.40;;;;;;4152263;28;20051;-44
2023/02/02 07:26:56;;;;;;;5.10;2.40;;;23.50;59.40;;;;;;4149504;28;20436;-43
2023/02/02 07:29:19;;;;;;;3.25;2.35;;;23.50;59.50;;;;;;4151007;28;20033;-47
2023/02/02 07:31:41;;;;;;;3.33;2.35;;;23.50;59.60;;;;;;4151412;28;20510;-43
2023/02/02 07:34:04;;;;;;;4.40;2.90;;;23.40;59.50;;;;;;4149261;28;20115;-49
2023/02/02 07:36:26;;;;;;;5.30;3.50;;;23.40;59.50;;;;;;4150482;28;20079;-46
2023/02/02 07:38:56;;;;;;;4.93;2.88;;;23.40;59.60;;;;;;4146545;28;20029;-47
2023/02/02 07:41:18;;;;;;;4.35;2.50;;;23.30;59.50;;;;;;4147688;28;20041;-50
2023/02/02 07:43:41;;;;;;;4.25;2.47;;;23.30;59.60;;;;;;4144373;28;20547;-45
2023/02/02 07:46:07;;;;;;;4.82;2.40;;;23.30;59.60;;;;;;4153296;28;20106;-44
2023/02/02 07:48:30;;;;;;;3.60;2.50;;;23.30;59.60;;;;;;4150106;28;20041;-42
2023/02/02 07:50:52;;;;;;;3.63;2.40;;;23.20;59.60;;;;;;4151505;28;20595;-43
2023/02/02 07:53:15;;;;;;;3.25;2.40;;;23.20;59.60;;;;;;4154425;28;20485;-49
2023/02/02 07:55:37;;;;;;;3.60;2.50;;;23.10;59.60;;;;;;4149553;28;20103;-46
2023/02/02 07:58:00;;;;;;;3.58;2.50;;;23.10;59.70;;;;;;4153034;28;20402;-46
2023/02/02 08:00:23;;;;;;;3.78;2.28;;;23.10;59.70;;;;;;4150093;28;20312;-43
2023/02/02 08:02:49;;;;;;;3.60;2.73;;;23.00;59.80;;;;;;4149849;28;20048;-42
2023/02/02 08:05:11;;;;;;;3.05;2.20;;;22.90;59.70;;;;;;4148145;28;20045;-43
2023/02/02 08:07:36;;;;;;;4.57;2.30;;;22.90;59.70;;;;;;4151382;28;20508;-42
2023/02/02 08:09:59;;;;;;;3.67;2.45;;;22.90;59.80;;;;;;4153063;28;20026;-44
2023/02/02 08:12:22;;;;;;;3.15;2.10;;;22.90;59.80;;;;;;4147964;28;20045;-44
2023/02/02 08:14:44;;;;;;;4.28;2.25;;;22.80;59.90;;;;;;4152036;28;20041;-42
2023/02/02 08:17:07;;;;;;;3.92;2.50;;;22.80;59.60;;;;;;4150804;28;20528;-41
2023/02/02 08:19:29;;;;;;;4.78;2.40;;;22.70;60.00;;;;;;4147190;28;20143;-46
2023/02/02 08:21:51;;;;;;;5.20;2.78;;;22.70;60.20;;;;;;4150543;28;20037;-42
2023/02/02 08:24:14;;;;;;;4.43;2.63;;;22.60;60.20;;;;;;4149061;28;20041;-49
2023/02/02 08:26:36;;;;;;;2.85;2.13;;;22.60;60.30;;;;;;4149187;28;20512;-40
2023/02/02 08:29:05;;;;;;;5.30;2.55;;;22.60;60.20;;;;;;4150098;28;20029;-42
2023/02/02 08:31:40;;;;;;;4.00;2.45;;;22.50;60.30;;;;;;4150516;28;20037;-42
2023/02/02 08:34:03;;;;;;;3.70;2.40;;;22.50;60.50;;;;;;4147256;28;20079;-46
2023/02/02 08:36:28;;;;;;;4.95;2.67;;;22.50;60.40;;;;;;4147825;28;20050;-43
2023/02/02 08:38:51;;;;;;;4.47;2.50;;;22.40;61.20;;;;;;4151435;28;20134;-42
2023/02/02 08:41:16;;;;;;;3.07;2.13;;;22.40;60.80;;;;;;4146980;28;20038;-41
2023/02/02 08:43:38;;;;;;;3.67;2.70;;;22.40;60.70;;;;;;4148286;28;20535;-39
2023/02/02 08:46:01;;;;;;;5.03;2.63;;;22.40;60.60;;;;;;4149786;28;20552;-46
2023/02/02 08:48:23;;;;;;;3.97;2.50;;;22.40;61.10;;;;;;4150929;28;20040;-46
2023/02/02 08:50:52;;;;;;;4.57;2.42;;;22.40;61.20;;;;;;4149438;28;20041;-45
2023/02/02 08:53:15;;;;;;;3.97;2.85;;;22.40;60.90;;;;;;4146953;28;20668;-44
2023/02/02 08:55:37;;;;;;;5.45;2.85;;;22.40;60.80;;;;;;4150784;28;20039;-44
2023/02/02 08:58:00;;;;;;;4.47;2.50;;;22.40;60.60;;;;;;4146522;28;20085;-48
2023/02/02 09:00:22;;;;;;;4.60;2.50;;;22.40;60.50;;;;;;4150057;28;20106;-45
2023/02/02 09:02:49;;;;;;;7.15;2.83;;;22.40;60.50;;;;;;4148355;28;20037;-44
2023/02/02 09:05:11;;;;;;;3.67;2.53;;;22.40;60.50;;;;;;4147171;28;20111;-44
2023/02/02 09:07:33;;;;;;;7.95;3.20;;;22.40;60.40;;;;;;4149334;28;20029;-49
2023/02/02 09:09:57;;;;;;;6.97;2.75;;;22.30;60.30;;;;;;4148755;28;20045;-45
2023/02/02 09:12:19;;;;;;;5.23;2.50;;;22.30;60.30;;;;;;4148662;28;20045;-45
2023/02/02 09:14:41;;;;;;;6.93;2.70;;;22.30;60.10;;;;;;4148206;28;20056;-46
2023/02/02 09:17:04;;;;;;;5.18;2.63;;;22.20;60.20;;;;;;4150867;28;20060;-42
2023/02/02 09:19:26;;;;;;;7.35;2.58;;;22.10;60.00;;;;;;4148485;28;20425;-46
2023/02/02 09:21:51;;;;;;;6.40;2.78;;;22.10;60.10;;;;;;4148797;28;20033;-48
2023/02/02 09:24:14;;;;;;;5.78;2.50;;;22.00;60.20;;;;;;4147311;28;20041;-47
2023/02/02 09:26:39;;;;;;;3.50;2.40;;;22.00;60.20;;;;;;4146707;28;20045;-45
2023/02/02 09:29:04;;;;;;;4.45;2.63;;;22.00;60.30;;;;;;4144908;28;20206;-48
2023/02/02 09:31:27;;;;;;;4.07;2.47;;;21.90;60.30;;;;;;4148302;28;20044;-50
2023/02/02 09:33:50;;;;;;;4.55;2.58;;;21.90;60.40;;;;;;4141788;28;20100;-43
2023/02/02 09:36:21;;;;;;;3.80;2.35;;;21.80;60.30;;;;;;4147856;28;20053;-48
2023/02/02 09:38:44;;;;;;;5.25;2.63;;;21.80;60.40;;;;;;4147588;28;20606;-49
2023/02/02 09:41:37;;;;;;;3.90;2.72;;;21.80;60.40;;;;;;4154146;28;20124;-46
2023/02/02 09:44:36;;;;;;;7.38;3.10;;;21.70;61.20;;;;;;4151852;28;20037;-46
2023/02/02 09:47:22;;;;;;;6.20;2.70;;;22.00;65.90;;;;;;4147015;28;20051;-46
2023/02/02 09:50:15;;;;;;;7.03;2.97;;;22.30;66.20;;;;;;4143921;28;20409;-46
2023/02/02 09:52:40;;;;;;;8.32;3.00;;;22.50;65.90;;;;;;4140376;28;20065;-42
2023/02/02 09:55:27;;;;;;;5.88;2.70;;;22.80;67.20;;;;;;4146619;28;20084;-42
2023/02/02 09:57:54;;;;;;;6.60;2.63;;;23.10;66.60;;;;;;4144120;28;20116;-44
2023/02/02 10:00:39;;;;;;;6.20;2.55;;;23.30;67.50;;;;;;4144248;28;20050;-40
2023/02/02 10:03:28;;;;;;;8.10;3.92;;;23.60;67.90;;;;;;4146853;28;20382;-42
2023/02/02 10:06:15;;;;;;;7.40;2.97;;;23.80;67.20;;;;;;4145883;28;20053;-42
2023/02/02 10:08:47;;;;;;;4.10;2.35;;;24.00;66.80;;;;;;4147823;28;20148;-43
2023/02/02 10:11:35;;;;;;;3.70;1.92;;;24.10;66.40;;;;;;4146709;28;20049;-42
2023/02/02 10:14:08;;;;;;;5.63;2.10;;;24.20;66.20;;;;;;4148909;28;20402;-44
2023/02/02 10:16:32;;;;;;;4.95;2.10;;;24.40;66.00;;;;;;4146798;28;20121;-41
2023/02/02 10:19:14;;;;;;;5.22;2.30;;;24.50;65.70;;;;;;4147974;28;20535;-42
2023/02/02 10:22:11;;;;;;;2.92;2.00;;;24.60;65.40;;;;;;4147350;28;20071;-40
2023/02/02 10:24:34;;;;;;;2.80;1.40;;;24.70;65.20;;;;;;4147016;28;20123;-42
2023/02/02 10:27:03;;;;;;;3.87;1.80;;;24.80;65.00;;;;;;4147791;28;20045;-43
2023/02/02 10:29:36;;;;;;;3.00;1.60;;;24.90;64.50;;;;;;4148465;28;20041;-43
2023/02/02 10:32:21;;;;;;;3.57;1.63;;;25.10;65.20;;;;;;4146647;28;20407;-43
2023/02/02 10:35:19;;;;;;;3.17;1.58;;;25.10;64.80;;;;;;4148810;28;20038;-43
2023/02/02 10:38:22;;;;;;;3.45;1.70;;;25.30;64.80;;;;;;4146791;28;20041;-41
2023/02/02 10:41:14;;;;;;;2.92;1.70;;;25.40;64.60;;;;;;4132744;28;20084;-40
2023/02/02 10:44:02;;;;;;;2.22;1.30;;;25.50;64.50;;;;;;4144832;28;20038;-42
2023/02/02 10:46:50;;;;;;;2.65;1.35;;;25.60;64.30;;;;;;4150313;28;20060;-43
2023/02/02 10:49:35;;;;;;;4.03;2.05;;;25.70;64.20;;;;;;4150943;28;20034;-42
2023/02/02 10:52:22;;;;;;;2.67;1.48;;;25.80;64.20;;;;;;4154948;28;20460;-41
2023/02/02 10:55:05;;;;;;;3.03;1.50;;;25.80;64.20;;;;;;4150657;28;20076;-42
2023/02/02 10:57:52;;;;;;;2.60;1.27;;;25.90;64.10;;;;;;4155385;28;20541;-41
2023/02/02 11:00:45;;;;;;;3.15;1.20;;;26.10;64.20;;;;;;4153064;28;20040;-50
2023/02/02 11:03:11;;;;;;;20.65;2.97;;;26.10;64.00;;;;;;4152451;28;20073;-40
2023/02/02 11:08:20;;;;;;;12.32;2.35;;;26.20;64.00;;;;;;4150231;28;20057;-47
2023/02/02 11:10:49;;;;;;;12.80;2.63;;;26.20;63.90;;;;;;4152936;28;20041;-46
2023/02/02 11:13:23;;;;;;;9.13;2.28;;;26.30;64.00;;;;;;4153360;28;20049;-41
2023/02/02 11:15:46;;;;;;;10.05;2.40;;;26.40;63.90;;;;;;4152742;28;20044;-45
2023/02/02 11:18:30;;;;;;;8.65;1.77;;;26.40;63.90;;;;;;4150954;28;20615;-41
2023/02/02 11:20:53;;;;;;;10.98;2.65;;;26.50;63.90;;;;;;4154288;28;20405;-45
2023/02/02 11:23:18;;;;;;;17.50;2.70;;;26.50;63.90;;;;;;4154573;28;20072;-41
2023/02/02 11:25:42;;;;;;;11.68;3.28;;;26.60;64.00;;;;;;4151180;28;20046;-41
2023/02/02 11:28:17;;;;;;;11.05;2.08;;;26.60;63.90;;;;;;4156537;28;20045;-45
2023/02/02 11:30:40;;;;;;;13.43;2.08;;;26.60;63.80;;;;;;4154095;28;20073;-42
2023/02/02 11:33:27;;;;;;;6.55;1.98;;;26.70;64.20;;;;;;4153335;28;20473;-40
2023/02/02 11:35:58;;;;;;;7.78;1.90;;;26.80;63.70;;;;;;4149185;28;20060;-42
2023/02/02 11:38:20;;;;;;;9.63;1.77;;;26.80;63.60;;;;;;4151648;28;20041;-41
2023/02/02 11:40:52;;;;;;;5.88;1.58;;;26.90;63.60;;;;;;4157263;28;20042;-43
2023/02/02 11:43:24;;;;;;;3.55;1.35;;;27.00;63.60;;;;;;4152537;28;20045;-42
2023/02/02 11:45:53;;;;;;;6.25;1.90;;;27.00;63.50;;;;;;4147999;28;20045;-45
2023/02/02 11:48:19;;;;;;;5.45;1.70;;;27.10;63.70;;;;;;4153603;28;20068;-43
2023/02/02 11:50:50;;;;;;;8.30;2.00;;;27.00;63.90;;;;;;4151174;28;20041;-41
2023/02/02 11:53:31;;;;;;;4.60;2.40;;;26.90;63.90;;;;;;4152683;28;20053;-43
2023/02/02 11:55:56;;;;;;;6.97;1.90;;;26.80;64.20;;;;;;4151005;28;20045;-46
2023/02/02 11:58:26;;;;;;;2.35;1.40;;;26.80;64.40;;;;;;4153321;28;20420;-41
2023/02/02 12:00:53;;;;;;;7.13;1.80;;;26.80;64.70;;;;;;4154146;28;20112;-50
2023/02/02 12:03:37;;;;;;;5.90;1.50;;;26.70;65.30;;;;;;4153575;28;20048;-46
2023/02/02 12:06:03;;;;;;;4.57;1.80;;;26.70;65.00;;;;;;4153401;28;21977;-45
2023/02/02 12:08:26;;;;;;;4.63;1.25;;;26.80;65.10;;;;;;4152222;28;20048;-46
2023/02/02 12:10:59;;;;;;;5.20;1.40;;;26.80;65.20;;;;;;4151684;28;20500;-45
2023/02/02 12:13:51;;;;;;;5.13;1.40;;;26.80;65.20;;;;;;4153527;28;20059;-48
2023/02/02 12:16:52;;;;;;;4.65;1.50;;;26.80;65.10;;;;;;4153239;28;20052;-44
2023/02/02 12:19:14;;;;;;;5.05;1.40;;;26.80;65.30;;;;;;4122202;28;20270;-45
2023/02/02 12:22:10;;;;;;;3.55;1.60;;;26.80;65.30;;;;;;4150381;28;20057;-51
2023/02/02 12:24:42;;;;;;;4.18;1.40;;;26.90;65.40;;;;;;4150981;28;20065;-47
2023/02/02 12:27:16;;;;;;;4.32;1.30;;;26.90;65.50;;;;;;4152030;28;20571;-43
2023/02/02 12:29:57;;;;;;;4.63;1.23;;;26.90;65.40;;;;;;4152545;28;20203;-43
2023/02/02 12:32:22;;;;;;;6.05;1.80;;;26.90;65.50;;;;;;4151859;28;20642;-40
2023/02/02 12:35:22;;;;;;;3.33;1.40;;;26.90;65.50;;;;;;4153687;28;20076;-45
2023/02/02 12:37:56;;;;;;;3.75;1.23;;;27.00;65.50;;;;;;4136812;28;20042;-46
2023/02/02 12:40:26;;;;;;;3.20;1.50;;;27.00;65.60;;;;;;4138746;28;20046;-41
2023/02/02 12:43:11;;;;;;;4.13;1.30;;;27.00;65.60;;;;;;4137371;28;20038;-48
2023/02/02 12:45:51;;;;;;;3.08;1.48;;;27.10;65.70;;;;;;4135403;28;20069;-42
2023/02/02 12:48:26;;;;;;;2.45;1.40;;;27.10;65.60;;;;;;4138153;28;20163;-41
2023/02/02 12:51:12;;;;;;;2.40;1.35;;;27.10;65.60;;;;;;4134589;28;20034;-48
2023/02/02 12:54:04;;;;;;;2.55;1.60;;;27.10;65.60;;;;;;4135974;28;20078;-45
2023/02/02 12:56:41;;;;;;;2.50;1.23;;;27.10;65.70;;;;;;4133889;28;20221;-46
2023/02/02 12:59:23;;;;;;;3.85;1.48;;;27.10;65.70;;;;;;4133257;28;20034;-42
2023/02/02 13:02:28;;;;;;;4.82;1.60;;;27.20;65.70;;;;;;4138544;28;20050;-46